Time;durP1;ratioP1;P1;durP2;ratioP2;P2;SDS_P1;SDS_P2;PMS_P1;PMS_P2;Temp;Humidity;BMP_temperature;BMP_pressure;BME280_temperature;BME280_humidity;BME280_pressure;Samples;Min_cycle;Max_cycle;Signal;HPM_P1;HPM_P2
2023/09/28 00:08:57;;;;;;;17.20;14.20;;;;;;;15.14;88.24;100074.70;436246;1256;141283;-59
2023/09/28 00:19:04;;;;;;;17.60;13.60;;;;;;;15.03;88.43;100069.86;435805;1255;140509;-59
2023/09/28 00:29:09;;;;;;;17.60;13.40;;;;;;;14.90;88.72;100062.35;435832;1257;140008;-59
2023/09/28 00:39:16;;;;;;;13.90;12.00;;;;;;;14.82;89.14;100057.46;436069;1256;139795;-65
2023/09/28 00:49:23;;;;;;;15.60;13.70;;;;;;;14.75;89.18;100047.98;436465;1255;141768;-59
2023/09/28 00:59:28;;;;;;;14.50;12.50;;;;;;;14.67;89.51;100047.95;436241;1255;140817;-60
2023/09/28 01:09:34;;;;;;;18.00;13.50;;;;;;;14.62;89.71;100046.09;436046;1256;139508;-61
2023/09/28 01:19:40;;;;;;;15.90;12.90;;;;;;;14.58;89.68;100042.30;436163;1255;139994;-60
2023/09/28 01:29:46;;;;;;;13.40;10.80;;;;;;;14.50;89.50;100039.71;436370;1251;141459;-60
2023/09/28 01:39:52;;;;;;;15.00;11.30;;;;;;;14.42;89.39;100038.33;435995;1255;140910;-61
2023/09/28 01:49:59;;;;;;;14.20;12.00;;;;;;;14.33;89.32;100036.35;436287;1256;139797;-59
2023/09/28 02:00:12;;;;;;;13.20;11.70;;;;;;;14.20;89.13;100035.33;436064;1251;140575;-61
2023/09/28 02:10:18;;;;;;;13.00;10.90;;;;;;;14.05;89.07;100031.09;436751;1255;140469;-60
2023/09/28 02:20:24;;;;;;;14.20;12.80;;;;;;;13.93;89.28;100028.48;435847;1257;139665;-60
2023/09/28 02:30:30;;;;;;;14.20;12.40;;;;;;;13.82;89.32;100029.23;435566;1256;141051;-59
2023/09/28 02:40:36;;;;;;;22.90;12.80;;;;;;;13.70;89.33;100023.55;435694;1257;140291;-60
2023/09/28 02:50:42;;;;;;;16.50;11.50;;;;;;;13.58;89.46;100026.16;435630;1251;140666;-61
2023/09/28 03:00:47;;;;;;;15.40;11.40;;;;;;;13.45;89.42;100025.06;435608;1254;141015;-60
2023/09/28 03:10:54;;;;;;;14.00;11.60;;;;;;;13.31;89.51;100022.48;436051;1251;141405;-59
2023/09/28 03:21:00;;;;;;;12.10;10.80;;;;;;;13.17;89.61;100017.46;435683;1251;139745;-60
2023/09/28 03:31:08;;;;;;;14.80;12.00;;;;;;;13.04;89.72;100017.25;435971;1251;141126;-60
2023/09/28 03:41:14;;;;;;;14.60;11.30;;;;;;;12.95;90.03;100013.13;435824;1256;140203;-64
2023/09/28 03:51:20;;;;;;;16.80;11.30;;;;;;;12.86;90.25;100007.27;435757;1251;141229;-59
2023/09/28 04:01:26;;;;;;;19.20;10.40;;;;;;;12.86;90.56;100005.30;435642;1256;141291;-60
2023/09/28 04:11:32;;;;;;;14.90;10.30;;;;;;;12.80;90.07;99999.58;435573;1254;141621;-60
2023/09/28 04:21:38;;;;;;;14.80;10.60;;;;;;;12.75;89.96;99998.48;436092;1256;139607;-59
2023/09/28 04:31:44;;;;;;;12.70;8.60;;;;;;;12.72;89.78;99997.40;435583;1254;140155;-60
2023/09/28 04:41:50;;;;;;;12.10;10.20;;;;;;;12.73;89.58;99994.16;436469;1256;140853;-60
2023/09/28 04:51:56;;;;;;;18.60;11.20;;;;;;;12.70;89.53;99996.48;435389;1256;139611;-59
2023/09/28 05:02:02;;;;;;;13.20;10.40;;;;;;;12.70;89.56;99999.70;435543;1253;139692;-60
2023/09/28 05:12:09;;;;;;;17.10;10.30;;;;;;;12.78;89.76;99995.24;435468;1256;139598;-57
2023/09/28 05:22:16;;;;;;;14.20;11.00;;;;;;;12.99;89.83;100007.39;435407;1253;139696;-59
2023/09/28 05:32:22;;;;;;;14.40;11.20;;;;;;;13.56;90.20;100002.49;435574;1256;140265;-59
2023/09/28 05:42:28;;;;;;;11.70;10.30;;;;;;;16.30;90.12;100002.75;435801;1253;140079;-61
2023/09/28 05:52:34;;;;;;;12.50;8.40;;;;;;;20.37;83.07;100010.04;435283;1253;140379;-61
2023/09/28 06:02:40;;;;;;;9.90;8.90;;;;;;;23.65;73.60;100009.02;435786;1256;139040;-63
2023/09/28 06:12:46;;;;;;;11.80;7.80;;;;;;;26.62;66.20;100006.56;435673;1256;139011;-61
2023/09/28 06:22:53;;;;;;;14.10;9.20;;;;;;;29.15;58.71;100007.86;435663;1256;140163;-65
2023/09/28 06:32:59;;;;;;;9.30;8.40;;;;;;;31.27;53.49;100006.09;435723;1256;139891;-67
2023/09/28 06:43:05;;;;;;;14.40;8.30;;;;;;;33.19;48.58;100001.63;435737;1256;138588;-63
2023/09/28 06:53:11;;;;;;;15.20;8.00;;;;;;;34.95;44.84;100005.79;436111;1251;140569;-66
2023/09/28 07:03:17;;;;;;;12.30;7.40;;;;;;;36.85;41.34;100012.81;435780;1251;138744;-65
2023/09/28 07:13:23;;;;;;;9.20;7.70;;;;;;;38.27;38.20;100008.16;435827;1251;139177;-70
2023/09/28 07:23:29;;;;;;;10.10;8.20;;;;;;;39.52;36.04;100004.45;436419;1251;139872;-63
2023/09/28 07:33:36;;;;;;;11.30;6.60;;;;;;;41.24;34.00;100009.80;436504;1253;138721;-64
2023/09/28 07:43:43;;;;;;;8.10;6.90;;;;;;;41.58;31.81;100003.91;436515;1250;138650;-65
2023/09/28 07:53:49;;;;;;;8.80;7.20;;;;;;;42.18;30.70;99996.67;436187;1253;140569;-61
2023/09/28 08:03:55;;;;;;;10.00;7.10;;;;;;;43.12;29.20;99998.30;435722;1254;138527;-61
2023/09/28 08:14:01;;;;;;;11.30;7.10;;;;;;;42.71;28.59;99995.29;435867;1251;138576;-62
2023/09/28 08:24:10;;;;;;;8.80;7.10;;;;;;;43.26;28.01;99995.41;436003;1255;139032;-61
2023/09/28 08:34:16;;;;;;;8.40;7.60;;;;;;;43.46;27.34;99993.11;436743;1251;139548;-66
2023/09/28 08:44:43;;;;;;;8.50;6.80;;;;;;;42.85;27.19;99987.36;436669;1254;139910;-65
2023/09/28 08:54:50;;;;;;;11.60;6.10;;;;;;;41.02;27.63;99981.53;436829;1254;138924;-62
2023/09/28 09:04:56;;;;;;;8.80;6.20;;;;;;;37.38;28.76;99977.02;436747;1255;138653;-62
2023/09/28 09:15:04;;;;;;;12.60;6.40;;;;;;;34.24;30.77;99974.80;436556;1254;139440;-65
2023/09/28 09:25:12;;;;;;;11.00;6.40;;;;;;;32.35;32.65;99977.86;436620;1255;139630;-60
2023/09/28 09:35:25;;;;;;;10.00;4.70;;;;;;;30.98;34.20;99976.20;436166;1256;138712;-61
2023/09/28 09:45:31;;;;;;;6.70;5.00;;;;;;;30.01;35.37;99976.12;436641;1251;138758;-67
2023/09/28 09:55:40;;;;;;;12.10;5.30;;;;;;;29.30;36.12;99976.89;436140;1251;138581;-66
2023/09/28 10:05:52;;;;;;;6.50;4.90;;;;;;;28.64;36.86;99974.02;435936;1251;139214;-68
2023/09/28 10:15:59;;;;;;;9.30;7.00;;;;;;;28.10;37.65;99973.96;436316;1250;138940;-61
2023/09/28 10:26:14;;;;;;;8.70;5.10;;;;;;;27.57;38.27;99972.88;436689;1253;140148;-76
2023/09/28 10:36:21;;;;;;;7.90;4.80;;;;;;;27.11;38.73;99970.01;438075;1251;138760;-75
2023/09/28 10:46:29;;;;;;;14.40;5.30;;;;;;;26.72;39.19;99971.85;438667;1251;139835;-73
2023/09/28 10:56:35;;;;;;;5.20;4.70;;;;;;;26.48;39.13;99974.06;438090;1255;139997;-68
2023/09/28 11:06:43;;;;;;;6.30;4.70;;;;;;;26.29;39.29;99962.63;436850;1251;138436;-70
2023/09/28 11:16:49;;;;;;;9.00;4.10;;;;;;;26.17;39.56;99953.71;436123;1253;138810;-69
2023/09/28 11:26:56;;;;;;;4.40;4.00;;;;;;;26.09;39.74;99951.52;436088;1255;138941;-63
2023/09/28 11:37:02;;;;;;;5.00;3.90;;;;;;;25.98;39.22;99949.37;436689;1251;138975;-62
2023/09/28 11:47:08;;;;;;;7.20;4.30;;;;;;;25.88;39.23;99942.90;435677;1255;138672;-69
2023/09/28 11:57:16;;;;;;;7.10;3.80;;;;;;;25.89;39.04;99934.67;436513;1251;139052;-79
2023/09/28 12:07:22;;;;;;;7.20;3.40;;;;;;;25.92;38.64;99928.95;437829;1255;140944;-66
2023/09/28 12:17:28;;;;;;;5.20;3.80;;;;;;;25.94;38.38;99928.06;435442;1254;139100;-62
2023/09/28 12:27:35;;;;;;;5.90;4.40;;;;;;;25.94;38.39;99923.02;435849;1251;140018;-79
2023/09/28 12:37:41;;;;;;;10.90;4.60;;;;;;;25.94;38.18;99921.81;439199;1254;139909;-63
2023/09/28 12:47:48;;;;;;;7.00;3.20;;;;;;;25.86;38.08;99912.09;436585;1255;138625;-64
2023/09/28 12:57:56;;;;;;;9.20;4.10;;;;;;;25.82;38.25;99905.80;435931;1254;138963;-62
2023/09/28 13:08:44;;;;;;;12.80;5.50;;;;;;;25.82;38.58;99902.73;437793;1254;138325;-78
2023/09/28 13:18:55;;;;;;;6.40;3.60;;;;;;;25.82;38.53;99903.65;435821;1254;138764;-69
2023/09/28 13:29:01;;;;;;;4.70;3.40;;;;;;;25.74;38.43;99892.15;436048;1252;138644;-66
2023/09/28 13:39:26;;;;;;;4.50;4.00;;;;;;;25.64;38.48;99884.77;436051;1256;138353;-71
2023/09/28 13:49:33;;;;;;;6.50;3.90;;;;;;;25.61;38.92;99880.23;435987;1256;139326;-65
2023/09/28 13:59:53;;;;;;;5.00;3.80;;;;;;;25.61;38.95;99878.98;436247;1255;139894;-69
2023/09/28 14:10:00;;;;;;;6.50;3.90;;;;;;;25.56;39.09;99874.29;436022;1255;141408;-64
2023/09/28 14:20:08;;;;;;;6.90;4.70;;;;;;;25.48;39.02;99867.63;435767;1254;138545;-62
2023/09/28 14:30:16;;;;;;;6.10;4.10;;;;;;;25.38;38.65;99866.86;436408;1254;138922;-59
2023/09/28 14:40:22;;;;;;;5.40;3.90;;;;;;;25.29;38.93;99862.80;436099;1256;138534;-64
2023/09/28 14:50:28;;;;;;;12.40;4.50;;;;;;;25.19;39.38;99857.02;436136;1251;138777;-63
2023/09/28 15:00:36;;;;;;;7.00;4.30;;;;;;;25.08;39.65;99856.89;436118;1252;140182;-60
2023/09/28 15:10:42;;;;;;;9.10;4.60;;;;;;;24.94;39.67;99853.78;435854;1255;139815;-60
2023/09/28 15:20:48;;;;;;;9.30;4.40;;;;;;;24.73;40.29;99859.59;435716;1254;138866;-59
2023/09/28 15:30:57;;;;;;;5.50;3.90;;;;;;;24.49;40.53;99862.66;435928;1254;138475;-59
2023/09/28 15:41:04;;;;;;;11.10;6.00;;;;;;;24.23;40.83;99866.45;436301;1254;138973;-59
2023/09/28 15:51:10;;;;;;;8.10;4.70;;;;;;;23.91;41.43;99860.77;436269;1256;139894;-60
2023/09/28 16:01:18;;;;;;;9.60;5.20;;;;;;;23.49;42.57;99853.78;436093;1254;138574;-60
2023/09/28 16:11:24;;;;;;;6.70;5.50;;;;;;;23.03;43.77;99860.84;436280;1254;139153;-60
2023/09/28 16:21:30;;;;;;;11.60;6.20;;;;;;;22.56;45.12;99863.17;436159;1255;138285;-62
2023/09/28 16:31:36;;;;;;;16.80;8.70;;;;;;;22.04;46.62;99863.50;436164;1256;138788;-59
2023/09/28 16:41:42;;;;;;;10.50;6.20;;;;;;;21.53;48.00;99875.33;435840;1255;138676;-62
2023/09/28 16:51:48;;;;;;;10.30;7.20;;;;;;;21.01;49.33;99876.97;436055;1256;139478;-59
2023/09/28 17:01:54;;;;;;;8.90;5.40;;;;;;;20.57;50.00;99875.16;435969;1256;139242;-65
2023/09/28 17:12:02;;;;;;;11.80;6.70;;;;;;;20.20;50.96;99888.60;435766;1251;139777;-62
2023/09/28 17:22:08;;;;;;;11.80;6.80;;;;;;;19.82;52.11;99894.96;435810;1255;141116;-61
2023/09/28 17:32:14;;;;;;;12.20;7.70;;;;;;;19.50;53.07;99895.80;435983;1254;139159;-61
2023/09/28 17:42:20;;;;;;;12.30;7.70;;;;;;;19.24;53.92;99907.33;435639;1256;140046;-61
2023/09/28 17:52:26;;;;;;;13.40;7.50;;;;;;;19.00;54.85;99920.00;435932;1256;139190;-62
2023/09/28 18:02:32;;;;;;;12.20;7.40;;;;;;;18.80;55.36;99923.23;435725;1256;139254;-66
2023/09/28 18:12:38;;;;;;;15.90;9.20;;;;;;;18.61;56.02;99931.76;435621;1251;139181;-66
2023/09/28 18:22:44;;;;;;;17.00;10.30;;;;;;;18.40;56.83;99940.88;436010;1256;138635;-64
2023/09/28 18:32:55;;;;;;;12.30;9.10;;;;;;;18.21;57.55;99953.42;435764;1256;138805;-62
2023/09/28 18:43:01;;;;;;;14.90;10.80;;;;;;;18.08;58.31;99946.58;436366;1256;138874;-64
2023/09/28 18:53:07;;;;;;;11.70;10.10;;;;;;;17.94;59.07;99954.22;435592;1256;139030;-63
2023/09/28 19:03:13;;;;;;;15.50;9.60;;;;;;;17.79;59.88;99964.90;435798;1257;138895;-63
2023/09/28 19:13:19;;;;;;;15.80;10.80;;;;;;;17.63;60.51;99977.30;435577;1256;138508;-62
2023/09/28 19:23:25;;;;;;;22.60;10.70;;;;;;;17.43;61.09;99989.08;435397;1256;198645;-63
2023/09/28 19:33:30;;;;;;;13.20;9.30;;;;;;;17.21;61.90;99990.80;435828;1256;139972;-66
2023/09/28 19:43:36;;;;;;;15.30;9.50;;;;;;;16.99;62.74;99989.80;435887;1256;141555;-63
2023/09/28 19:53:42;;;;;;;13.60;10.00;;;;;;;16.81;63.60;99989.67;436191;1255;140761;-64
2023/09/28 20:03:48;;;;;;;15.60;10.60;;;;;;;16.66;64.33;99994.15;435804;1256;140660;-63
2023/09/28 20:13:56;;;;;;;21.00;13.10;;;;;;;16.45;64.92;100002.88;435699;1255;139585;-63
2023/09/28 20:24:01;;;;;;;21.30;14.60;;;;;;;16.23;65.57;100006.42;436186;1254;141526;-64
2023/09/28 20:34:08;;;;;;;21.90;16.60;;;;;;;15.97;66.34;100001.60;435882;1253;140436;-63
2023/09/28 20:44:14;;;;;;;17.50;15.10;;;;;;;15.69;67.22;100003.23;436243;1255;140688;-63
2023/09/28 20:54:19;;;;;;;20.40;12.50;;;;;;;15.45;67.96;100002.80;435672;1256;140435;-63
2023/09/28 21:04:25;;;;;;;16.10;11.30;;;;;;;15.25;68.71;100001.58;435642;1251;141273;-63
2023/09/28 21:14:31;;;;;;;11.80;10.50;;;;;;;15.10;69.46;99996.52;436201;1257;141626;-64
2023/09/28 21:24:37;;;;;;;12.70;8.90;;;;;;;15.04;70.23;99989.38;435606;1251;141804;-63
2023/09/28 21:34:43;;;;;;;11.40;9.80;;;;;;;14.97;70.59;99983.08;435620;1256;140233;-64
2023/09/28 21:44:49;;;;;;;13.50;9.10;;;;;;;14.91;71.12;99981.38;435646;1256;139221;-63
2023/09/28 21:54:55;;;;;;;9.60;8.50;;;;;;;14.89;71.54;99977.68;435519;1255;140872;-64
2023/09/28 22:05:01;;;;;;;10.20;9.00;;;;;;;14.79;71.86;99976.85;436054;1256;139498;-63
2023/09/28 22:15:09;;;;;;;10.70;9.70;;;;;;;14.74;72.46;99975.05;435917;1251;139451;-66
2023/09/28 22:25:15;;;;;;;13.10;8.40;;;;;;;14.72;72.90;99981.55;435916;1256;140245;-63
2023/09/28 22:35:21;;;;;;;9.80;8.90;;;;;;;14.65;73.01;99986.80;436387;1256;139252;-64
2023/09/28 22:45:27;;;;;;;13.20;10.30;;;;;;;14.44;73.05;99988.35;436554;1256;141185;-62
2023/09/28 22:55:33;;;;;;;11.80;8.60;;;;;;;14.21;73.50;99989.18;436141;1255;141455;-64
2023/09/28 23:05:39;;;;;;;13.80;9.40;;;;;;;13.98;74.12;99991.17;435972;1251;140278;-64
2023/09/28 23:15:46;;;;;;;14.40;10.60;;;;;;;13.78;75.00;100000.45;436508;1256;139748;-63
2023/09/28 23:25:53;;;;;;;12.10;10.50;;;;;;;13.62;75.82;100003.48;436132;1255;140236;-64
2023/09/28 23:35:58;;;;;;;12.40;9.40;;;;;;;13.43;75.86;100009.38;436172;1255;139687;-63
2023/09/28 23:46:06;;;;;;;13.00;10.70;;;;;;;13.27;76.77;100012.54;435671;1255;139584;-68
2023/09/28 23:56:11;;;;;;;;;;;;;;;13.17;77.57;100017.27;436217;1256;139496;-63
